createdAt,value
2022-11-18T00:01:13.304Z,12.20
2022-11-18T00:06:35.645Z,11.63
2022-11-18T00:12:16.479Z,11.67
2022-11-18T00:17:38.727Z,12.03
2022-11-18T00:23:01.177Z,11.37
2022-11-18T00:28:23.412Z,12.60
2022-11-18T00:33:45.868Z,11.77
2022-11-18T00:39:10.761Z,10.93
2022-11-18T00:44:33.859Z,12.23
2022-11-18T00:49:56.153Z,11.70
2022-11-18T00:55:18.265Z,12.20
2022-11-18T01:00:42.090Z,11.17
2022-11-18T01:06:04.458Z,11.63
2022-11-18T01:11:45.809Z,11.47
2022-11-18T01:17:08.560Z,12.30
2022-11-18T01:22:31.076Z,12.30
2022-11-18T01:27:53.489Z,11.17
2022-11-18T01:33:15.739Z,11.80
2022-11-18T01:38:38.288Z,12.97
2022-11-18T01:44:06.171Z,12.60
2022-11-18T01:49:28.576Z,11.77
2022-11-18T01:54:57.577Z,12.60
2022-11-18T02:00:20.009Z,12.60
2022-11-18T02:05:44.337Z,12.77
2022-11-18T02:11:31.420Z,12.67
2022-11-18T02:17:21.481Z,12.67
2022-11-18T02:23:21.483Z,12.87
2022-11-18T02:29:05.207Z,13.03
2022-11-18T02:34:42.309Z,12.87
2022-11-18T02:40:14.128Z,13.13
2022-11-18T02:45:39.476Z,13.33
2022-11-18T02:51:07.267Z,13.70
2022-11-18T02:56:31.061Z,13.50
2022-11-18T03:01:53.187Z,13.43
2022-11-18T03:07:22.252Z,12.70
2022-11-18T03:13:13.039Z,13.73
2022-11-18T03:19:18.155Z,12.93
2022-11-18T03:24:52.105Z,12.87
2022-11-18T03:30:19.205Z,13.50
2022-11-18T03:35:46.156Z,13.77
2022-11-18T03:41:11.755Z,13.03
2022-11-18T03:46:39.522Z,14.50
2022-11-18T03:52:10.148Z,12.50
2022-11-18T03:57:57.237Z,13.70
2022-11-18T04:03:19.470Z,12.97
2022-11-18T04:08:46.273Z,14.23
2022-11-18T04:14:13.761Z,14.60
2022-11-18T04:19:37.013Z,13.67
2022-11-18T04:24:59.313Z,14.70
2022-11-18T04:30:22.038Z,14.67
2022-11-18T04:35:46.944Z,16.73
2022-11-18T04:41:09.424Z,15.17
2022-11-18T04:46:31.508Z,15.63
2022-11-18T04:51:54.838Z,15.93
2022-11-18T04:57:17.406Z,14.90
2022-11-18T05:02:40.010Z,15.53
2022-11-18T05:08:02.152Z,16.07
2022-11-18T05:13:24.752Z,14.87
2022-11-18T05:18:46.955Z,15.40
2022-11-18T05:24:09.479Z,14.60
2022-11-18T05:29:31.780Z,15.37
2022-11-18T05:34:54.251Z,14.43
2022-11-18T05:40:16.884Z,13.60
2022-11-18T05:45:40.065Z,13.47
2022-11-18T05:51:02.447Z,12.93
2022-11-18T05:56:41.077Z,12.00
2022-11-18T06:02:12.480Z,13.33
2022-11-18T06:07:34.722Z,12.23
2022-11-18T06:13:00.638Z,11.87
2022-11-18T06:18:29.044Z,11.50
2022-11-18T06:23:51.643Z,12.33
2022-11-18T06:29:18.705Z,12.47
2022-11-18T06:34:43.920Z,11.97
2022-11-18T06:40:06.607Z,12.70
2022-11-18T06:45:29.168Z,11.13
2022-11-18T06:50:51.674Z,11.93
2022-11-18T06:56:16.332Z,12.33
2022-11-18T07:01:41.375Z,10.50
2022-11-18T07:07:03.608Z,11.77
2022-11-18T07:12:26.256Z,12.53
2022-11-18T07:17:48.448Z,12.97
2022-11-18T07:23:10.993Z,12.60
2022-11-18T07:28:33.707Z,12.97
2022-11-18T07:33:56.586Z,13.53
2022-11-18T07:39:19.018Z,13.67
2022-11-18T07:44:41.238Z,12.57
2022-11-18T07:50:05.295Z,10.83
2022-11-18T07:55:31.999Z,11.53
2022-11-18T08:00:54.713Z,11.90
2022-11-18T08:06:19.356Z,11.83
2022-11-18T08:11:41.493Z,12.57
2022-11-18T08:17:03.841Z,12.10
2022-11-18T08:22:26.267Z,11.40
2022-11-18T08:27:48.573Z,11.60
2022-11-18T08:33:10.998Z,10.60
2022-11-18T08:38:33.313Z,12.40
2022-11-18T08:43:55.783Z,12.10
2022-11-18T08:49:18.491Z,11.70
2022-11-18T08:54:41.164Z,11.73
2022-11-18T09:00:05.265Z,11.47
2022-11-18T09:05:27.525Z,9.77
2022-11-18T09:10:50.274Z,11.67
2022-11-18T09:16:13.200Z,8.60
2022-11-18T09:21:39.689Z,8.13
2022-11-18T09:27:05.312Z,7.43
2022-11-18T09:32:27.672Z,7.40
2022-11-18T09:37:49.993Z,8.07
2022-11-18T09:43:41.692Z,7.13
2022-11-18T09:49:14.809Z,6.17
2022-11-18T09:54:38.296Z,6.87
2022-11-18T10:00:01.354Z,6.10
2022-11-18T10:05:27.204Z,6.80
2022-11-18T10:11:20.632Z,6.33
2022-11-18T10:16:58.002Z,6.60
2022-11-18T10:22:33.106Z,6.70
2022-11-18T10:27:56.814Z,6.33
2022-11-18T10:33:21.977Z,6.53
2022-11-18T10:38:49.671Z,6.07
2022-11-18T10:44:41.116Z,6.53
2022-11-18T10:50:29.021Z,6.37
2022-11-18T10:56:01.189Z,7.67
2022-11-18T11:01:25.722Z,6.83
2022-11-18T11:06:48.371Z,6.67
2022-11-18T11:12:17.940Z,5.60
2022-11-18T11:18:08.602Z,6.57
2022-11-18T11:23:31.816Z,6.37
2022-11-18T11:29:34.498Z,6.77
2022-11-18T11:35:15.155Z,5.87
2022-11-18T11:40:44.379Z,6.63
2022-11-18T11:46:35.548Z,5.57
2022-11-18T11:52:17.497Z,6.73
2022-11-18T11:57:39.941Z,6.63
2022-11-18T12:03:11.174Z,6.63
2022-11-18T12:08:34.312Z,5.87
2022-11-18T12:14:05.601Z,5.67
2022-11-18T12:19:27.807Z,5.10
2022-11-18T12:24:49.936Z,5.20
2022-11-18T12:30:18.908Z,5.60
2022-11-18T12:35:48.874Z,5.93
2022-11-18T12:41:59.563Z,5.73
2022-11-18T12:47:37.392Z,4.60
2022-11-18T12:52:59.967Z,5.10
2022-11-18T12:58:26.924Z,4.87
2022-11-18T13:03:49.521Z,4.47
2022-11-18T13:09:21.473Z,4.80
2022-11-18T13:15:03.680Z,6.20
2022-11-18T13:20:33.453Z,6.77
2022-11-18T13:26:11.932Z,5.03
2022-11-18T13:31:34.211Z,4.37
2022-11-18T13:36:58.929Z,5.40
2022-11-18T13:42:27.076Z,5.47
2022-11-18T13:47:52.322Z,4.97
2022-11-18T13:53:38.274Z,4.03
2022-11-18T13:59:18.538Z,4.67
2022-11-18T14:04:57.084Z,4.60
2022-11-18T14:10:31.394Z,3.43
2022-11-18T14:16:22.706Z,3.20
2022-11-18T14:21:45.966Z,3.50
2022-11-18T14:27:38.145Z,3.27
2022-11-18T14:33:22.261Z,2.80
2022-11-18T14:39:19.414Z,3.00
2022-11-18T14:44:32.404Z,3.07
2022-11-18T14:49:54.678Z,2.70
2022-11-18T14:55:17.353Z,3.37
2022-11-18T15:00:41.825Z,8.43
2022-11-18T15:06:04.409Z,14.47
2022-11-18T15:11:26.525Z,17.27
2022-11-18T15:16:48.849Z,14.47
2022-11-18T15:22:11.033Z,15.10
2022-11-18T15:27:34.252Z,5.93
2022-11-18T15:32:57.168Z,5.67
2022-11-18T15:38:19.561Z,6.23
2022-11-18T15:43:42.078Z,5.40
2022-11-18T15:49:04.619Z,5.93
2022-11-18T15:54:26.859Z,7.50
2022-11-18T15:59:49.206Z,5.90
2022-11-18T16:05:11.486Z,9.20
2022-11-18T16:10:52.460Z,12.23
2022-11-18T16:16:23.360Z,6.87
2022-11-18T16:21:51.300Z,5.43
2022-11-18T16:27:13.640Z,6.70
2022-11-18T16:32:36.041Z,7.60
2022-11-18T16:37:58.126Z,7.67
2022-11-18T16:43:20.559Z,7.83
2022-11-18T16:48:42.764Z,8.30
2022-11-18T16:54:09.834Z,8.47
2022-11-18T16:59:32.205Z,9.57
2022-11-18T17:04:54.521Z,10.77
2022-11-18T17:10:19.894Z,11.00
2022-11-18T17:15:42.118Z,11.80
2022-11-18T17:21:07.160Z,15.03
2022-11-18T17:26:29.613Z,13.67
2022-11-18T17:31:53.785Z,13.80
2022-11-18T17:37:16.091Z,13.20
2022-11-18T17:42:38.756Z,13.20
2022-11-18T17:48:01.221Z,15.73
2022-11-18T17:53:23.568Z,16.93
2022-11-18T17:58:46.744Z,18.43
2022-11-18T18:04:08.881Z,17.40
2022-11-18T18:09:31.599Z,15.00
2022-11-18T18:14:54.244Z,15.23
2022-11-18T18:20:16.982Z,16.23
2022-11-18T18:25:39.265Z,15.80
2022-11-18T18:31:04.581Z,17.37
2022-11-18T18:36:27.538Z,18.27
2022-11-18T18:41:49.965Z,20.77
2022-11-18T18:47:12.294Z,17.97
2022-11-18T18:52:34.759Z,18.23
2022-11-18T18:57:57.290Z,16.90
2022-11-18T19:03:19.524Z,17.97
2022-11-18T19:08:41.880Z,16.23
2022-11-18T19:14:07.426Z,21.13
2022-11-18T19:19:48.368Z,17.63
2022-11-18T19:25:10.569Z,17.93
2022-11-18T19:30:33.127Z,17.60
2022-11-18T19:35:55.736Z,16.13
2022-11-18T19:41:17.996Z,17.80
2022-11-18T19:46:40.684Z,17.87
2022-11-18T19:52:03.462Z,21.47
2022-11-18T19:57:25.893Z,24.87
2022-11-18T20:02:48.422Z,22.63
2022-11-18T20:08:10.674Z,22.43
2022-11-18T20:13:33.448Z,26.63
2022-11-18T20:19:05.008Z,23.37
2022-11-18T20:24:30.108Z,21.97
2022-11-18T20:29:52.657Z,22.87
2022-11-18T20:35:15.364Z,24.27
2022-11-18T20:40:37.864Z,23.17
2022-11-18T20:46:01.202Z,19.47
2022-11-18T20:51:28.539Z,22.57
2022-11-18T20:56:50.667Z,21.67
2022-11-18T21:02:13.136Z,19.67
2022-11-18T21:07:35.632Z,19.83
2022-11-18T21:13:16.786Z,18.73
2022-11-18T21:18:39.196Z,17.57
2022-11-18T21:24:02.550Z,16.43
2022-11-18T21:29:27.448Z,14.97
2022-11-18T21:34:49.768Z,14.13
2022-11-18T21:40:12.500Z,15.00
2022-11-18T21:45:34.985Z,13.97
2022-11-18T21:51:01.457Z,15.60
2022-11-18T21:56:28.361Z,15.40
2022-11-18T22:01:51.068Z,15.40
2022-11-18T22:07:13.410Z,13.57
2022-11-18T22:12:35.965Z,14.80
2022-11-18T22:17:58.179Z,15.50
2022-11-18T22:23:21.682Z,14.43
2022-11-18T22:28:44.299Z,16.00
2022-11-18T22:34:06.661Z,17.87
2022-11-18T22:39:29.284Z,17.07
2022-11-18T22:44:51.416Z,18.93
2022-11-18T22:50:13.989Z,13.97
2022-11-18T22:55:36.197Z,14.43
2022-11-18T23:01:12.899Z,12.03
2022-11-18T23:06:35.409Z,12.80
2022-11-18T23:12:15.909Z,14.70
2022-11-18T23:17:38.645Z,14.43
2022-11-18T23:23:01.078Z,14.67
2022-11-18T23:28:23.236Z,14.53
2022-11-18T23:33:46.428Z,15.17
2022-11-18T23:39:09.071Z,14.67
2022-11-18T23:44:46.264Z,15.30
2022-11-18T23:50:08.660Z,13.97
2022-11-18T23:55:31.268Z,13.07
